Latest Weather Observations for Thredbo Top Station

IDN60901

Issued at 2:21 pm EST Wednesday 6 May 2015 (issued every 10 minutes, with the page automatically refreshed every 10 minutes)

About weather observations | Map of Canberra area stations | Latest observations for Canberra area | Other Formats
Station Details ID: 071032 Name: THREDBO AWS Lat: -36.49 Lon: 148.29 Height: 1957.0 m
Data from the previous 72 hours. | See also: Recent months at Thredbo Top Station
Date/Time
EST
Tmp

°C
App
Tmp
°C
Dew
Point
°C
Rel
Hum
%
Delta-T

°C
Wind Press
QNH
hPa
Press
MSL
hPa
Rain
since
9 am
mm
Dir
 
Spd
km/h
Gust
km/h
Spd
kts
Gust
kts
06/02:03pm -2.0 -13.8 -2.1 99 -0.1 NW 50 69 27 37 1012.6 1014.6 0.2
06/02:00pm -2.1 -14.3 -2.2 99 -0.1 NW 52 69 28 37 1012.6 1014.6 0.2
06/01:30pm -1.9 -13.7 -2.0 99 -0.1 NW 50 80 27 43 1012.8 1014.8 0.2
06/01:00pm -1.8 -13.5 -1.9 99 -0.1 NW 50 70 27 38 1012.8 1014.8 0.2
06/12:35pm -2.2 -12.9 -2.3 99 -0.1 NW 44 67 24 36 1013.0 1014.9 0.2
06/12:30pm -2.0 -13.0 -2.1 99 -0.1 NW 46 61 25 33 1013.1 1015.0 0.2
06/12:00pm -1.4 -12.7 -1.5 99 0.0 NW 48 80 26 43 1013.3 1015.3 0.2
06/11:55am -1.1 -12.4 -1.2 99 0.0 NW 48 70 26 38 1013.1 1015.0 0.2
06/11:30am -1.8 -12.8 -1.9 99 -0.1 NW 46 63 25 34 1012.8 1014.8 0.2
06/11:00am -2.0 -13.4 -2.1 99 -0.1 NW 48 67 26 36 1012.8 1014.8 0.0
06/10:41am -2.2 -13.2 -2.3 99 -0.1 NW 46 65 25 35 1012.7 1014.7 0.0
06/10:30am -2.1 -12.7 -2.2 99 -0.1 NW 44 59 24 32 1012.8 1014.8 0.0
06/10:00am -2.6 -15.2 -2.7 99 -0.1 NW 54 76 29 41 - - 0.0
06/09:32am -2.9 -15.5 -3.0 99 -0.1 NW 54 72 29 39 - - 0.0
06/09:30am -2.8 -15.8 -2.9 99 -0.1 NW 56 72 30 39 - - 0.0
06/09:06am -3.0 -16.2 -3.1 99 -0.1 NNW 57 76 31 41 - - 0.0
06/09:00am -3.1 -17.1 -3.2 99 -0.1 NNW 61 74 33 40 - - 4.6
06/08:30am -3.0 -16.6 -3.1 99 -0.1 NNW 59 74 32 40 - - 4.6
06/08:11am -3.1 -16.7 -3.2 99 -0.1 NNW 59 78 32 42 - - 4.6
06/08:00am -3.1 -16.7 -3.2 99 -0.1 NNW 59 76 32 41 - - 4.6
06/07:47am -3.1 -17.9 -3.2 99 -0.1 NNW 65 83 35 45 - - 4.6
06/07:43am -3.1 -16.7 -3.2 99 -0.1 NW 59 82 32 44 - - 4.6
06/07:37am -3.1 -15.0 -3.4 98 0.0 NW 50 69 27 37 - - 4.6
06/07:30am -3.1 -15.4 -3.2 99 -0.1 NNW 52 65 28 35 - - 4.6
06/07:00am -3.2 -17.2 -3.3 99 -0.1 NW 61 80 33 43 - - 4.6
06/06:30am -3.4 -18.6 -3.5 99 -0.1 NW 67 87 36 47 - - 4.6
06/05:30am -3.3 -17.3 -3.4 99 -0.1 NW 61 83 33 45 - - 4.6
06/05:00am -3.3 -18.1 -3.4 99 -0.1 NW 65 87 35 47 - - 4.6
06/04:30am -3.3 -17.7 -3.4 99 -0.1 NW 63 83 34 45 - - 4.6
06/04:00am -3.5 -19.1 -3.6 99 -0.1 NW 69 98 37 53 - - 4.6
06/03:30am -3.3 -18.1 -3.6 98 0.0 NW 65 93 35 50 - - 4.6
06/03:01am -3.3 -18.9 -3.6 98 0.0 NW 69 93 37 50 - - 4.6
06/03:00am -3.3 -18.5 -3.6 98 0.0 NW 67 83 36 45 - - 4.6
06/02:30am -3.0 -18.5 -3.3 98 0.0 NW 69 89 37 48 - - 4.6
06/02:00am -3.1 -18.6 -3.2 99 -0.1 NW 69 89 37 48 - - 4.6
06/01:30am -2.9 -18.0 -3.2 98 0.0 NW 67 93 36 50 - - 4.6
06/01:00am -3.0 -18.5 -3.3 98 0.0 NW 69 93 37 50 - - 4.6
06/12:30am -2.8 -18.6 -3.8 93 0.2 NW 70 95 38 51 - - 4.6
06/12:00am -2.5 -20.2 -3.9 90 0.4 NW 80 104 43 56 1007.9 1009.7 4.6
 
Date/Time
EST
Tmp

°C
App
Tmp
°C
Dew
Point
°C
Rel
Hum
%
Delta-T

°C
Wind Press
QNH
hPa
Press
MSL
hPa
Rain
since
9 am
mm
Dir
 
Spd
km/h
Gust
km/h
Spd
kts
Gust
kts
05/11:34pm -2.5 -20.5 -3.2 95 0.1 NW 82 100 44 54 1007.9 1009.7 4.6
05/11:30pm -2.5 -21.1 -3.6 92 0.3 NW 85 100 46 54 1008.2 1010.0 4.6
05/11:00pm -2.1 -20.7 -3.4 91 0.4 NW 85 109 46 59 1008.0 1009.8 4.6
05/10:30pm -1.7 -19.7 -3.0 91 0.4 NW 82 104 44 56 1008.6 1010.4 4.6
05/10:00pm -1.6 -18.3 -2.3 95 0.2 NW 76 96 41 52 1009.5 1011.4 4.6
05/09:40pm -1.6 -18.8 -2.6 93 0.3 NNW 78 98 42 53 1009.5 1011.4 4.6
05/09:30pm -1.5 -18.7 -2.6 92 0.3 NNW 78 95 42 51 1009.2 1011.0 4.6
05/09:00pm -1.4 -18.6 -3.1 88 0.5 NNW 78 96 42 52 1008.7 1010.5 4.6
05/08:51pm -1.2 -16.7 -3.2 86 0.7 NNW 69 96 37 52 1009.3 1011.1 4.6
05/08:49pm -1.2 -16.3 -3.2 86 0.7 NNW 67 87 36 47 1009.4 1011.3 4.6
05/08:30pm -1.0 -12.9 -2.9 87 0.6 NW 50 69 27 37 1009.4 1011.3 4.6
05/08:01pm -0.8 -10.5 -1.9 92 0.4 NW 39 61 21 33 1009.4 1011.3 4.6
05/08:00pm -0.9 -10.5 -1.7 94 0.3 NW 39 54 21 29 1009.4 1011.3 4.6
05/07:32pm -0.8 -9.8 -2.7 87 0.7 NW 35 63 19 34 1009.4 1011.3 4.6
05/07:30pm -0.8 -9.8 -2.4 89 0.6 NW 35 48 19 26 1009.4 1011.3 4.6
05/07:00pm -0.6 -10.7 -2.6 86 0.7 NW 41 74 22 40 1009.0 1010.8 4.6
05/06:30pm -0.4 -9.4 -2.4 86 0.7 NW 35 59 19 32 1007.7 1009.5 4.6
05/06:00pm -0.1 -10.6 -2.2 86 0.8 NW 43 82 23 44 1006.8 1008.5 4.6
05/05:30pm 0.5 -10.9 -2.5 80 1.2 NW 48 74 26 40 1005.8 1007.5 4.6
05/05:00pm 0.8 -12.0 -1.3 86 0.9 NW 56 96 30 52 1005.3 1007.0 4.6
05/04:30pm 1.1 -10.6 -1.5 83 1.0 NW 50 83 27 45 1004.8 1006.5 4.6
05/04:18pm 1.3 -12.5 -1.3 83 1.0 NW 61 96 33 52 1005.3 1007.0 4.6
05/04:00pm 1.5 -10.8 -0.3 88 0.7 NW 54 76 29 41 1004.7 1006.4 4.6
05/03:30pm 2.1 -10.7 0.0 86 0.9 NW 57 89 31 48 1004.0 1005.7 4.6
05/03:00pm 2.2 -10.7 2.1 99 0.0 NW 59 96 32 52 1003.9 1005.6 4.6
05/02:40pm 2.2 -12.2 2.1 99 0.0 NNW 67 106 36 57 1003.5 1005.1 4.6
05/02:39pm 2.3 -12.4 2.2 99 0.0 NNW 69 106 37 57 1003.6 1005.2 4.6
05/02:30pm 2.2 -14.3 2.1 99 0.0 NNW 78 119 42 64 1003.9 1005.6 4.6
05/02:28pm 2.4 -14.0 2.3 99 0.0 NW 78 119 42 64 1003.8 1005.5 4.6
05/02:27pm 2.4 -13.3 2.3 99 0.0 NW 74 100 40 54 1003.7 1005.3 4.6
05/02:00pm 2.2 -11.0 2.1 99 0.0 NNW 61 82 33 44 1003.7 1005.3 4.4
05/01:30pm 2.0 -10.3 1.9 99 0.0 NW 56 74 30 40 1003.7 1005.3 4.2
05/01:00pm 1.6 -11.0 1.5 99 0.0 NNW 57 80 31 43 1004.4 1006.1 3.0
05/12:30pm 1.7 -10.3 1.6 99 0.0 NW 54 74 29 40 1004.6 1006.3 3.0
05/12:00pm 1.9 -9.7 1.8 99 0.0 NNW 52 72 28 39 1005.4 1007.1 3.0
05/11:30am 2.2 -10.3 1.8 97 0.2 NNW 57 82 31 44 1005.9 1007.6 3.0
05/11:00am 2.5 -9.9 1.6 94 0.4 N 56 76 30 41 1006.3 1008.1 2.8
05/10:30am 1.6 -10.4 1.3 98 0.1 NW 54 80 29 43 1007.5 1009.2 2.2
05/10:01am 1.6 -10.6 0.3 91 0.5 NNW 54 78 29 42 1007.9 1009.7 0.8
05/10:00am 1.8 -10.4 0.5 91 0.5 NNW 54 70 29 38 1008.0 1009.8 0.6
05/09:30am 3.5 -10.2 -0.7 74 1.7 NNW 61 82 33 44 1007.9 1009.7 0.0
05/09:00am 4.6 -10.9 -2.7 59 2.8 NNW 69 87 37 47 1007.9 1009.7 0.0
05/08:30am 5.1 -10.5 -2.0 60 2.8 NNW 70 91 38 49 1008.4 1010.2 0.0
05/08:00am 4.7 -11.2 -1.7 63 2.6 NNW 72 93 39 50 1008.0 1009.8 0.0
05/07:30am 4.1 -10.8 -1.7 66 2.3 NNW 67 89 36 48 1008.4 1010.2 0.0
05/07:00am 4.0 -12.7 -2.2 64 2.4 NNW 76 95 41 51 1008.5 1010.3 0.0
05/06:30am 4.0 -13.5 -2.4 63 2.5 NNW 80 98 43 53 1008.2 1010.0 0.0
05/06:00am 3.8 -13.6 -1.4 69 2.1 NNW 80 98 43 53 1008.4 1010.2 0.0
05/05:47am 4.0 -13.9 -1.0 70 2.0 NW 83 102 45 55 1008.5 1010.3 0.0
05/05:30am 4.1 -13.7 -0.3 73 1.8 NW 83 100 45 54 1008.6 1010.4 0.0
05/05:10am 4.2 -14.0 -0.8 70 2.0 NW 85 104 46 56 1008.6 1010.4 0.0
05/05:00am 4.3 -14.7 -0.9 69 2.1 NW 89 104 48 56 1008.7 1010.5 0.0
05/04:30am 4.4 -14.2 -0.6 70 2.0 NW 87 106 47 57 1009.0 1010.8 0.0
05/04:12am 4.5 -14.8 -0.5 70 2.1 NW 91 109 49 59 1009.0 1010.8 0.0
05/04:00am 4.5 -15.1 0.1 73 1.8 NW 93 107 50 58 1009.2 1011.0 0.0
05/03:41am 4.8 -15.4 -1.0 66 2.4 NW 95 113 51 61 1009.5 1011.4 0.0
05/03:30am 5.1 -15.2 -1.8 61 2.8 NW 95 111 51 60 1009.3 1011.1 0.0
05/03:02am 5.0 -14.2 0.2 71 2.0 NW 91 111 49 60 1009.9 1011.7 0.0
05/03:00am 4.8 -14.4 0.8 75 1.7 NW 91 106 49 57 1009.9 1011.7 0.0
05/02:40am 5.2 -13.0 -0.6 66 2.4 NW 85 104 46 56 1010.4 1012.3 0.0
05/02:30am 5.4 -12.6 -2.0 59 3.0 NW 83 100 45 54 1010.7 1012.6 0.0
05/02:00am 6.1 -10.8 -3.8 49 3.8 NNW 76 89 41 48 1011.5 1013.4 0.0
05/01:30am 7.1 -7.7 -12.1 24 6.1 NNW 61 74 33 40 1012.0 1014.0 0.0
05/01:00am 7.4 -7.1 -13.5 21 6.5 NNW 59 69 32 37 1012.2 1014.1 0.0
05/12:30am 6.5 -8.5 -9.8 30 5.4 NNW 63 74 34 40 1012.6 1014.6 0.0
05/12:00am 5.9 -9.4 -4.8 46 4.0 NNW 67 76 36 41 1013.0 1014.9 0.0
 
Date/Time
EST
Tmp

°C
App
Tmp
°C
Dew
Point
°C
Rel
Hum
%
Delta-T

°C
Wind Press
QNH
hPa
Press
MSL
hPa
Rain
since
9 am
mm
Dir
 
Spd
km/h
Gust
km/h
Spd
kts
Gust
kts
04/11:30pm 7.9 -8.1 -20.7 11 7.5 NNW 65 76 35 41 1013.2 1015.2 0.0
04/11:00pm 7.2 -7.9 -19.3 13 7.1 NNW 61 72 33 39 1013.3 1015.3 0.0
04/10:30pm 7.5 -6.8 -21.0 11 7.4 NNW 56 63 30 34 1013.8 1015.7 0.0
04/10:00pm 8.2 -4.6 -21.6 10 7.7 NNW 48 54 26 29 1014.2 1016.2 0.0
04/09:30pm 8.2 -3.9 -24.1 8 7.9 NNW 44 50 24 27 1014.6 1016.6 0.0
04/09:00pm 8.8 -3.3 -23.6 8 8.1 NW 44 52 24 28 1014.7 1016.7 0.0
04/08:30pm 9.5 -3.0 -24.6 7 8.5 NW 46 56 25 30 1014.9 1016.9 0.0
04/08:00pm 9.6 -2.5 -24.5 7 8.5 NW 44 56 24 30 1015.2 1017.3 0.0
04/07:30pm 8.7 -3.2 -18.1 13 7.6 NW 44 52 24 28 1015.4 1017.4 0.0
04/07:00pm 9.1 -1.2 -20.9 10 8.0 NW 35 46 19 25 1015.4 1017.4 0.0
04/06:30pm 9.4 -0.6 -23.2 8 8.3 NW 33 41 18 22 1015.4 1017.4 0.0
04/06:00pm 9.6 -0.7 -23.0 8 8.4 NW 35 39 19 21 1015.2 1017.3 0.0
04/05:30pm 9.0 -0.8 -17.9 13 7.7 NW 33 43 18 23 1015.1 1017.2 0.0
04/05:00pm 6.3 -2.0 -5.3 43 4.3 NNW 30 33 16 18 1015.2 1017.3 0.0
04/04:30pm 9.2 0.9 -8.8 27 6.4 NNW 28 37 15 20 1015.6 1017.6 0.0
04/04:00pm 10.7 3.8 -6.6 29 6.6 N 22 32 12 17 1015.5 1017.5 0.0
04/03:30pm 11.1 5.3 -4.5 33 6.2 NW 17 26 9 14 1015.4 1017.4 0.0
04/03:00pm 12.0 5.6 -4.6 31 6.7 NW 20 32 11 17 1015.1 1017.2 0.0
04/02:30pm 12.2 5.1 -4.0 32 6.6 NW 24 32 13 17 1015.1 1017.2 0.0
04/02:00pm 12.1 6.6 0.5 45 5.2 NNW 19 30 10 16 1015.2 1017.3 0.0
04/01:30pm 12.9 8.4 2.2 48 5.0 NNW 15 22 8 12 1015.4 1017.4 0.0
04/01:00pm 13.2 7.3 -1.9 35 6.5 NNW 19 24 10 13 1015.7 1017.8 0.0
04/12:30pm 12.7 6.7 -2.7 34 6.5 NNW 19 26 10 14 1016.0 1018.1 0.0
04/12:00pm 13.1 7.1 -3.2 32 6.8 NNW 19 24 10 13 1016.5 1018.6 0.0
04/11:30am 12.6 6.2 -4.5 30 6.9 NW 20 26 11 14 - - 0.0
04/11:00am 12.3 5.9 -4.8 30 6.9 NNW 20 26 11 14 - - 0.0
04/10:30am 12.4 7.7 -5.1 29 7.0 NNW 11 17 6 9 - - 0.0
04/10:00am 11.3 6.3 -4.0 34 6.2 WNW 13 22 7 12 - - 0.0
04/09:30am 9.9 3.8 -3.7 38 5.5 WNW 19 30 10 16 - - 0.0
04/09:00am 9.3 1.6 -2.9 42 5.0 NW 28 35 15 19 - - 0.0
04/08:30am 8.6 0.9 -2.9 44 4.6 NW 28 39 15 21 - - 0.0
04/08:00am 7.6 -0.8 -2.7 48 4.1 WNW 32 37 17 20 - - 0.0
04/07:30am 6.8 -1.5 -1.6 55 3.4 WNW 32 39 17 21 - - 0.0
04/07:00am 6.2 -2.6 -4.0 48 3.9 NW 33 43 18 23 - - 0.0
04/06:30am 5.7 -2.8 -2.1 57 3.1 NW 33 39 18 21 - - 0.0
04/06:00am 5.7 -3.0 -0.6 64 2.6 NW 35 44 19 24 - - 0.0
04/05:30am 6.0 -2.3 1.9 75 1.8 NW 35 46 19 25 - - 0.0
04/05:00am 5.8 -1.7 1.2 72 2.0 NW 30 41 16 22 - - 0.0
04/04:30am 5.9 -2.2 1.2 72 2.0 NW 33 43 18 23 - - 0.0
04/04:00am 6.1 -2.1 0.4 67 2.4 NNW 33 43 18 23 - - 0.0
04/03:30am 6.4 -2.8 1.5 71 2.1 NNW 39 44 21 24 - - 0.0
04/03:00am 6.4 -3.3 2.7 77 1.7 NNW 43 48 23 26 1018.4 1020.6 0.0
04/02:30am 6.5 -2.5 2.4 75 1.8 NNW 39 46 21 25 1018.7 1020.8 0.0
04/02:00am 4.7 -3.2 2.4 85 1.0 NNW 33 39 18 21 1018.8 1020.9 0.0
04/01:30am 7.0 -1.4 1.3 67 2.5 NNW 35 39 19 21 1019.0 1021.2 0.0
04/01:00am 6.7 -1.2 1.2 68 2.4 NW 32 37 17 20 1019.1 1021.3 0.0
04/12:30am 4.1 -2.8 2.8 91 0.6 N 28 32 15 17 1019.2 1021.4 0.0
04/12:00am 6.9 -1.1 1.8 70 2.3 NW 33 39 18 21 1019.5 1021.7 0.0
 
Date/Time
EST
Tmp

°C
App
Tmp
°C
Dew
Point
°C
Rel
Hum
%
Delta-T

°C
Wind Press
QNH
hPa
Press
MSL
hPa
Rain
since
9 am
mm
Dir
 
Spd
km/h
Gust
km/h
Spd
kts
Gust
kts
03/11:30pm 5.9 -1.5 -0.8 62 2.8 NW 28 35 15 19 1019.8 1022.0 0.0
03/11:00pm 6.8 -0.6 -0.6 59 3.1 NNW 28 32 15 17 1020.0 1022.2 0.0
03/10:30pm 4.3 -2.7 1.7 83 1.1 NNW 28 32 15 17 1020.3 1022.5 0.0
03/10:00pm 3.5 -2.7 -0.1 77 1.5 NNW 22 30 12 16 1020.5 1022.7 0.0
03/09:30pm 2.5 -3.7 -0.3 82 1.1 N 22 26 12 14 1020.3 1022.5 0.0
03/09:00pm 2.7 -3.0 2.6 99 0.0 NNW 22 28 12 15 1020.2 1022.4 0.0
03/08:30pm 3.3 -1.0 3.2 99 0.0 NNW 15 20 8 11 1020.3 1022.5 0.0
03/08:00pm 3.1 0.3 3.0 99 0.0 NNW 7 11 4 6 1020.4 1022.6 0.0
03/07:30pm 2.5 -0.4 1.6 94 0.4 NW 6 9 3 5 1020.2 1022.4 0.0
03/07:00pm 3.1 0.8 0.3 82 1.2 WNW 2 7 1 4 1019.8 1022.0 0.0
03/06:30pm 4.0 1.3 2.5 90 0.7 NW 6 7 3 4 1019.5 1021.7 0.0
03/06:00pm 4.2 1.7 3.5 95 0.3 NNW 6 9 3 5 1019.4 1021.5 0.0
03/05:30pm 5.7 4.2 4.8 94 0.4 WSW 2 4 1 2 1019.0 1021.2 0.0
03/05:00pm 6.5 4.2 4.8 89 0.8 SW 6 9 3 5 1018.9 1021.1 0.0
03/04:30pm 10.2 9.5 6.9 80 1.7 CALM 0 4 0 2 1018.6 1020.7 0.0
03/04:00pm 10.1 8.7 7.2 82 1.5 SSE 4 6 2 3 1018.6 1020.7 0.0
03/03:30pm 10.6 8.7 6.6 76 2.0 S 6 9 3 5 1018.4 1020.6 0.0
03/03:00pm 10.7 8.8 6.6 76 2.1 SE 6 9 3 5 1018.4 1020.6 0.0
03/02:30pm 11.3 9.6 6.0 70 2.7 SE 4 7 2 4 1018.3 1020.5 0.0

Latest Capital City Observations: Canberra | Sydney | Melbourne | Brisbane | Adelaide | Perth | Hobart | Darwin

Other Formats:

Comma delimited format used in spreadsheet applications
http://www.bom.gov.au/fwo/IDN60903/IDN60903.95909.axf

JavaScript Object Notation format (JSON) in row-major order
http://www.bom.gov.au/fwo/IDN60903/IDN60903.95909.json